createdAt,value
2022-10-16T00:00:37.593Z,99.99
2022-10-16T00:01:37.592Z,99.99
2022-10-16T00:02:37.576Z,99.99
2022-10-16T00:03:37.468Z,99.99
2022-10-16T00:04:37.475Z,99.99
2022-10-16T00:05:37.390Z,99.99
2022-10-16T00:06:37.344Z,99.99
2022-10-16T00:07:37.304Z,99.99
2022-10-16T00:08:37.258Z,99.99
2022-10-16T00:09:37.224Z,99.99
2022-10-16T00:10:37.195Z,99.99
2022-10-16T00:11:37.125Z,99.99
2022-10-16T00:12:37.089Z,99.99
2022-10-16T00:13:37.088Z,99.99
2022-10-16T00:14:37.005Z,99.99
2022-10-16T00:15:36.961Z,99.99
2022-10-16T00:16:36.961Z,99.99
2022-10-16T00:17:36.906Z,99.99
2022-10-16T00:18:36.839Z,99.99
2022-10-16T00:19:36.804Z,99.99
2022-10-16T00:20:36.744Z,99.99
2022-10-16T00:21:36.701Z,99.99
2022-10-16T00:22:36.684Z,99.99
2022-10-16T00:23:36.629Z,99.99
2022-10-16T00:24:36.590Z,99.99
2022-10-16T00:25:36.532Z,99.99
2022-10-16T00:26:36.509Z,99.99
2022-10-16T00:27:36.457Z,99.99
2022-10-16T00:28:36.523Z,99.99
2022-10-16T00:29:36.392Z,99.99
2022-10-16T00:30:36.331Z,99.99
2022-10-16T00:31:36.302Z,99.99
2022-10-16T00:32:36.242Z,99.99
2022-10-16T00:33:36.191Z,99.99
2022-10-16T00:34:36.184Z,99.99
2022-10-16T00:35:36.140Z,99.99
2022-10-16T00:36:36.111Z,99.99
2022-10-16T00:37:36.022Z,99.99
2022-10-16T00:38:35.981Z,99.99
2022-10-16T00:39:35.939Z,99.99
2022-10-16T00:40:35.907Z,99.99
2022-10-16T00:41:35.882Z,99.99
2022-10-16T00:42:35.863Z,99.99
2022-10-16T00:43:35.786Z,99.99
2022-10-16T00:44:35.764Z,99.99
2022-10-16T00:45:35.719Z,99.99
2022-10-16T00:46:35.654Z,99.99
2022-10-16T00:47:35.627Z,99.99
2022-10-16T00:48:35.595Z,99.99
2022-10-16T00:49:35.541Z,99.99
2022-10-16T00:50:35.497Z,99.99
2022-10-16T00:51:35.431Z,99.99
2022-10-16T00:52:35.460Z,99.99
2022-10-16T00:53:35.344Z,99.99
2022-10-16T00:54:35.301Z,99.99
2022-10-16T00:55:38.745Z,99.99
2022-10-16T00:56:35.220Z,99.99
2022-10-16T00:57:35.183Z,99.99
2022-10-16T00:58:35.270Z,99.99
2022-10-16T00:59:35.148Z,99.99
2022-10-16T01:00:35.057Z,99.99
2022-10-16T01:01:35.071Z,99.99
2022-10-16T01:02:34.960Z,99.99
2022-10-16T01:03:34.971Z,99.99
2022-10-16T01:04:34.882Z,99.99
2022-10-16T01:05:34.837Z,99.99
2022-10-16T01:06:34.820Z,99.99
2022-10-16T01:07:34.746Z,99.99
2022-10-16T01:08:34.709Z,99.99
2022-10-16T01:09:34.756Z,99.99
2022-10-16T01:10:34.621Z,99.99
2022-10-16T01:11:34.602Z,99.99
2022-10-16T01:12:38.441Z,99.99
2022-10-16T01:13:34.538Z,99.99
2022-10-16T01:14:34.493Z,99.99
2022-10-16T01:15:34.509Z,99.99
2022-10-16T01:16:34.368Z,99.99
2022-10-16T01:17:34.332Z,99.99
2022-10-16T01:18:34.299Z,99.99
2022-10-16T01:19:34.288Z,99.99
2022-10-16T01:20:34.193Z,99.99
2022-10-16T01:21:34.184Z,99.99
2022-10-16T01:22:34.117Z,99.99
2022-10-16T01:23:34.121Z,99.99
2022-10-16T01:24:34.109Z,99.99
2022-10-16T01:25:34.008Z,99.99
2022-10-16T01:26:33.945Z,99.99
2022-10-16T01:27:33.954Z,99.99
2022-10-16T01:28:33.904Z,99.99
2022-10-16T01:29:33.803Z,99.99
2022-10-16T01:30:33.768Z,99.99
2022-10-16T01:31:33.754Z,99.99
2022-10-16T01:32:33.682Z,99.99
2022-10-16T01:33:33.676Z,99.99
2022-10-16T01:34:33.597Z,99.99
2022-10-16T01:35:33.561Z,99.99
2022-10-16T01:36:33.511Z,99.99
2022-10-16T01:37:33.467Z,99.99
2022-10-16T01:38:33.427Z,99.99
2022-10-16T01:39:33.414Z,99.99
2022-10-16T01:40:33.347Z,99.99
2022-10-16T01:41:33.304Z,99.99
2022-10-16T01:42:33.259Z,99.99
2022-10-16T01:43:33.233Z,99.99
2022-10-16T01:44:33.171Z,99.99
2022-10-16T01:45:33.132Z,99.99
2022-10-16T01:46:33.090Z,99.99
2022-10-16T01:47:33.068Z,99.99
2022-10-16T01:48:33.019Z,99.99
2022-10-16T01:49:32.962Z,99.99
2022-10-16T01:50:32.919Z,99.99
2022-10-16T01:51:32.877Z,99.99
2022-10-16T01:52:32.832Z,99.99
2022-10-16T01:53:32.790Z,99.99
2022-10-16T01:54:32.872Z,99.99
2022-10-16T01:55:32.707Z,99.99
2022-10-16T01:56:32.661Z,99.99
2022-10-16T01:57:32.620Z,99.99
2022-10-16T01:58:32.572Z,99.99
2022-10-16T01:59:32.533Z,99.99
2022-10-16T02:00:32.521Z,99.99
2022-10-16T02:01:32.451Z,99.99
2022-10-16T02:02:32.406Z,99.99
2022-10-16T02:03:32.365Z,99.99
2022-10-16T02:04:32.322Z,99.99
2022-10-16T02:05:32.280Z,99.99
2022-10-16T02:06:32.261Z,99.99
2022-10-16T02:07:32.194Z,99.99
2022-10-16T02:08:32.152Z,99.99
2022-10-16T02:09:32.107Z,99.99
2022-10-16T02:10:32.883Z,99.99
2022-10-16T02:11:32.022Z,99.99
2022-10-16T02:12:31.979Z,99.99
2022-10-16T02:13:31.934Z,99.99
2022-10-16T02:14:31.895Z,99.99
2022-10-16T02:15:31.882Z,99.99
2022-10-16T02:16:31.810Z,99.99
2022-10-16T02:17:31.780Z,99.99
2022-10-16T02:18:31.721Z,99.99
2022-10-16T02:19:31.712Z,99.99
2022-10-16T02:20:31.640Z,99.99
2022-10-16T02:21:31.606Z,99.99
2022-10-16T02:22:31.573Z,99.99
2022-10-16T02:23:31.510Z,99.99
2022-10-16T02:24:31.469Z,99.99
2022-10-16T02:25:31.427Z,99.99
2022-10-16T02:26:31.384Z,99.99
2022-10-16T02:27:31.336Z,99.99
2022-10-16T02:28:31.362Z,99.99
2022-10-16T02:29:31.277Z,99.99
2022-10-16T02:30:31.212Z,99.99
2022-10-16T02:31:31.170Z,99.99
2022-10-16T02:32:31.128Z,99.99
2022-10-16T02:33:31.081Z,99.99
2022-10-16T02:34:31.040Z,99.99
2022-10-16T02:35:31.016Z,99.99
2022-10-16T02:36:30.956Z,99.99
2022-10-16T02:37:30.910Z,99.99
2022-10-16T02:38:30.867Z,99.99
2022-10-16T02:39:30.831Z,99.99
2022-10-16T02:40:30.798Z,99.99
2022-10-16T02:41:30.743Z,99.99
2022-10-16T02:42:30.699Z,99.99
2022-10-16T02:43:30.656Z,99.99
2022-10-16T02:44:30.615Z,99.99
2022-10-16T02:45:30.565Z,99.99
2022-10-16T02:46:30.548Z,99.99
2022-10-16T02:47:30.484Z,99.99
2022-10-16T02:48:30.439Z,99.99
2022-10-16T02:49:30.399Z,99.99
2022-10-16T02:50:30.352Z,99.99
2022-10-16T02:51:30.307Z,99.99
2022-10-16T02:52:30.288Z,99.99
2022-10-16T02:53:30.225Z,99.99
2022-10-16T02:54:30.182Z,99.99
2022-10-16T02:55:30.140Z,99.99
2022-10-16T02:56:30.101Z,99.99
2022-10-16T02:57:30.051Z,99.99
2022-10-16T02:58:30.020Z,99.99
2022-10-16T02:59:29.973Z,99.99
2022-10-16T03:00:29.951Z,99.99
2022-10-16T03:01:29.953Z,99.99
2022-10-16T03:02:29.840Z,99.99
2022-10-16T03:03:29.795Z,99.99
2022-10-16T03:04:29.766Z,99.99
2022-10-16T03:05:29.707Z,99.99
2022-10-16T03:06:29.686Z,99.99
2022-10-16T03:07:29.624Z,99.99
2022-10-16T03:08:29.582Z,99.99
2022-10-16T03:09:29.543Z,99.99
2022-10-16T03:10:29.497Z,99.99
2022-10-16T03:11:29.452Z,99.99
2022-10-16T03:12:29.440Z,99.99
2022-10-16T03:13:29.368Z,99.99
2022-10-16T03:15:29.294Z,99.99
2022-10-16T03:16:29.242Z,99.99
2022-10-16T03:17:29.425Z,99.99
2022-10-16T03:18:29.152Z,99.99
2022-10-16T03:19:29.110Z,99.99
2022-10-16T03:20:29.066Z,99.99
2022-10-16T03:21:29.023Z,99.99
2022-10-16T03:22:28.981Z,99.99
2022-10-16T03:23:28.963Z,99.99
2022-10-16T03:24:28.896Z,99.99
2022-10-16T03:25:28.851Z,99.99
2022-10-16T03:26:28.808Z,99.99
2022-10-16T03:27:29.032Z,99.99
2022-10-16T03:28:28.774Z,99.99
2022-10-16T03:29:28.682Z,99.99
2022-10-16T03:30:28.635Z,99.99
2022-10-16T03:31:28.596Z,99.99
2022-10-16T03:32:28.624Z,99.99
2022-10-16T03:33:28.507Z,99.99
2022-10-16T03:34:28.466Z,99.99
2022-10-16T03:35:28.449Z,99.99
2022-10-16T03:36:28.397Z,99.99
2022-10-16T03:37:28.612Z,99.99
2022-10-16T03:38:28.292Z,99.99
2022-10-16T03:39:28.253Z,99.99
2022-10-16T03:40:28.209Z,99.99
2022-10-16T03:41:28.167Z,99.99
2022-10-16T03:42:28.123Z,99.99
2022-10-16T03:43:28.103Z,99.99
2022-10-16T03:44:28.042Z,99.99
2022-10-16T03:45:28.022Z,99.99
2022-10-16T03:46:27.977Z,99.99
2022-10-16T03:47:28.165Z,99.99
2022-10-16T03:48:27.868Z,99.99
2022-10-16T03:49:27.824Z,99.99
2022-10-16T03:50:27.780Z,99.99
2022-10-16T03:51:27.738Z,99.99
2022-10-16T03:52:27.699Z,99.99
2022-10-16T03:53:27.679Z,99.99
2022-10-16T03:54:27.637Z,99.99
2022-10-16T03:55:27.600Z,99.99
2022-10-16T03:56:27.529Z,99.99
2022-10-16T03:57:27.788Z,99.99
2022-10-16T03:58:28.378Z,99.99
2022-10-16T03:59:27.422Z,99.99
2022-10-16T04:00:27.357Z,99.99
2022-10-16T04:01:27.353Z,99.99
2022-10-16T04:02:27.274Z,99.99
2022-10-16T04:03:27.232Z,99.99
2022-10-16T04:04:27.186Z,99.99
2022-10-16T04:05:27.157Z,99.99
2022-10-16T04:06:27.103Z,99.99
2022-10-16T04:07:27.389Z,99.99
2022-10-16T04:08:27.018Z,99.99
2022-10-16T04:09:26.978Z,99.99
2022-10-16T04:10:26.960Z,99.99
2022-10-16T04:11:26.890Z,99.99
2022-10-16T04:12:26.848Z,99.99
2022-10-16T04:13:26.808Z,99.99
2022-10-16T04:14:26.760Z,99.99
2022-10-16T04:15:26.717Z,99.99
2022-10-16T04:16:26.690Z,99.99
2022-10-16T04:17:26.838Z,99.99
2022-10-16T04:18:26.588Z,99.99
2022-10-16T04:19:26.550Z,99.99
2022-10-16T04:20:26.505Z,99.99
2022-10-16T04:21:26.458Z,99.99
2022-10-16T04:23:26.496Z,99.99
2022-10-16T04:24:26.333Z,99.99
2022-10-16T04:25:26.297Z,99.99
2022-10-16T04:26:26.274Z,99.99
2022-10-16T04:27:26.282Z,99.99
2022-10-16T04:28:26.181Z,99.99
2022-10-16T04:29:26.125Z,99.99
2022-10-16T04:30:26.077Z,99.99
2022-10-16T04:31:26.050Z,99.99
2022-10-16T04:32:25.998Z,99.99
2022-10-16T04:33:25.951Z,99.99
2022-10-16T04:34:25.908Z,99.99
2022-10-16T04:35:25.864Z,99.99
2022-10-16T04:36:28.421Z,99.99
2022-10-16T04:37:26.058Z,99.99
2022-10-16T04:38:25.735Z,99.99
2022-10-16T04:39:25.696Z,99.99
2022-10-16T04:40:25.653Z,99.99
2022-10-16T04:41:25.608Z,99.99
2022-10-16T04:42:25.568Z,99.99
2022-10-16T04:43:25.590Z,99.99
2022-10-16T04:44:25.483Z,99.99
2022-10-16T04:45:25.439Z,99.99
2022-10-16T04:46:25.434Z,99.99
2022-10-16T04:47:25.553Z,99.99
2022-10-16T04:48:25.334Z,99.99
2022-10-16T04:49:25.268Z,99.99
2022-10-16T04:50:25.225Z,99.99
2022-10-16T04:51:25.179Z,99.99
2022-10-16T04:52:25.226Z,99.99
2022-10-16T04:53:25.095Z,99.99
2022-10-16T04:54:25.051Z,99.99
2022-10-16T04:55:25.035Z,99.99
2022-10-16T04:56:24.972Z,99.99
2022-10-16T04:57:25.155Z,99.99
2022-10-16T04:58:24.885Z,99.99
2022-10-16T04:59:24.838Z,99.99
2022-10-16T05:00:24.836Z,99.99
2022-10-16T05:01:24.752Z,99.99
2022-10-16T05:02:24.944Z,99.99
2022-10-16T05:03:24.701Z,99.99
2022-10-16T05:04:24.625Z,99.99
2022-10-16T05:05:24.582Z,99.99
2022-10-16T05:06:24.542Z,99.99
2022-10-16T05:07:24.773Z,99.99
2022-10-16T05:08:24.468Z,99.99
2022-10-16T05:09:24.411Z,99.99
2022-10-16T05:10:24.369Z,99.99
2022-10-16T05:11:24.327Z,99.99
2022-10-16T05:12:24.282Z,99.99
2022-10-16T05:13:24.239Z,99.99
2022-10-16T05:14:24.228Z,99.99
2022-10-16T05:15:24.155Z,99.99
2022-10-16T05:16:24.176Z,99.99
2022-10-16T05:17:24.442Z,99.99
2022-10-16T05:18:24.020Z,99.99
2022-10-16T05:19:27.984Z,99.99
2022-10-16T05:20:23.941Z,99.99
2022-10-16T05:21:23.906Z,99.99
2022-10-16T05:22:23.855Z,99.99
2022-10-16T05:23:23.809Z,99.99
2022-10-16T05:24:23.764Z,99.99
2022-10-16T05:25:23.728Z,99.99
2022-10-16T05:26:23.698Z,99.99
2022-10-16T05:27:23.834Z,99.99
2022-10-16T05:28:23.668Z,99.99
2022-10-16T05:29:23.550Z,99.99
2022-10-16T05:30:23.504Z,99.99
2022-10-16T05:31:23.465Z,99.99
2022-10-16T05:32:23.449Z,99.99
2022-10-16T05:33:23.377Z,99.99
2022-10-16T05:34:23.336Z,99.99
2022-10-16T05:35:23.288Z,99.99
2022-10-16T05:36:23.250Z,99.99
2022-10-16T05:37:23.480Z,99.99
2022-10-16T05:38:23.182Z,99.99
2022-10-16T05:39:23.133Z,99.99
2022-10-16T05:40:23.081Z,99.99
2022-10-16T05:41:23.038Z,99.99
2022-10-16T05:42:22.994Z,99.99
2022-10-16T05:43:22.952Z,99.99
2022-10-16T05:44:22.944Z,99.99
2022-10-16T05:45:22.860Z,99.99
2022-10-16T05:46:22.826Z,99.99
2022-10-16T05:47:22.772Z,99.99
2022-10-16T05:48:22.741Z,99.99
2022-10-16T05:49:22.690Z,99.99
2022-10-16T05:50:22.681Z,99.99
2022-10-16T05:51:22.606Z,99.99
2022-10-16T05:52:22.565Z,99.99
2022-10-16T05:53:22.520Z,99.99
2022-10-16T05:54:22.503Z,99.99
2022-10-16T05:55:22.434Z,99.99
2022-10-16T05:56:22.399Z,99.99
2022-10-16T05:57:22.383Z,99.99
2022-10-16T05:58:22.379Z,99.99
2022-10-16T05:59:22.263Z,99.99
2022-10-16T06:03:58.218Z,99.99
2022-10-16T06:04:58.112Z,99.99
2022-10-16T06:05:58.066Z,99.99
2022-10-16T06:06:58.020Z,99.99
2022-10-16T06:07:57.980Z,99.99
2022-10-16T06:08:57.978Z,99.99
2022-10-16T06:09:57.891Z,99.99
2022-10-16T06:10:57.850Z,99.99
2022-10-16T06:11:57.800Z,99.99
2022-10-16T06:12:57.760Z,99.99
2022-10-16T06:13:57.727Z,99.99
2022-10-16T06:14:57.671Z,99.99
2022-10-16T06:15:57.627Z,99.99
2022-10-16T06:16:57.586Z,99.99
2022-10-16T06:17:57.539Z,99.99
2022-10-16T06:18:57.522Z,99.99
2022-10-16T06:19:57.455Z,99.99
2022-10-16T06:20:57.437Z,99.99
2022-10-16T06:21:57.397Z,99.99
2022-10-16T06:22:57.325Z,99.99
2022-10-16T06:23:57.287Z,99.99
2022-10-16T06:24:57.239Z,99.99
2022-10-16T06:25:57.197Z,99.99
2022-10-16T06:26:57.176Z,99.99
2022-10-16T06:27:57.114Z,99.99
2022-10-16T06:28:57.211Z,99.99
2022-10-16T06:29:57.025Z,99.99
2022-10-16T06:30:56.982Z,99.99
2022-10-16T06:31:56.941Z,99.99
2022-10-16T06:32:56.978Z,99.99
2022-10-16T06:33:56.855Z,99.99
2022-10-16T06:34:56.810Z,99.99
2022-10-16T06:35:56.769Z,99.99
2022-10-16T06:36:56.738Z,99.99
2022-10-16T06:37:56.686Z,99.99
2022-10-16T06:38:56.680Z,99.99
2022-10-16T06:39:56.596Z,99.99
2022-10-16T06:40:56.555Z,99.99
2022-10-16T06:41:56.550Z,99.99
2022-10-16T06:42:56.467Z,99.99
2022-10-16T06:43:56.456Z,99.99
2022-10-16T06:44:56.422Z,99.99
2022-10-16T06:45:56.343Z,99.99
2022-10-16T06:46:56.302Z,99.99
2022-10-16T06:47:56.258Z,99.99
2022-10-16T06:48:56.217Z,99.99
2022-10-16T06:49:56.170Z,99.99
2022-10-16T06:50:56.205Z,99.99
2022-10-16T06:51:56.094Z,99.99
2022-10-16T06:52:56.065Z,99.99
2022-10-16T06:54:04.392Z,99.99
2022-10-16T06:54:55.961Z,99.99
2022-10-16T06:55:55.937Z,99.99
2022-10-16T06:56:55.876Z,99.99
2022-10-16T06:57:55.839Z,99.99
2022-10-16T06:58:55.798Z,99.99
2022-10-16T06:59:55.754Z,99.99
2022-10-16T07:00:55.709Z,99.99
2022-10-16T07:01:55.687Z,99.99
2022-10-16T07:02:55.628Z,99.99
2022-10-16T07:03:55.607Z,99.99
2022-10-16T07:04:55.545Z,99.99
2022-10-16T07:05:55.500Z,99.99
2022-10-16T07:06:55.456Z,99.99
2022-10-16T07:07:55.433Z,99.99
2022-10-16T07:08:55.374Z,99.99
2022-10-16T07:09:55.333Z,99.99
2022-10-16T07:10:55.287Z,99.99
2022-10-16T07:11:55.240Z,99.99
2022-10-16T07:12:55.201Z,99.99
2022-10-16T07:13:56.428Z,99.99
2022-10-16T07:14:55.117Z,99.99
2022-10-16T07:15:55.075Z,99.99
2022-10-16T07:16:55.029Z,99.99
2022-10-16T07:17:54.996Z,99.99
2022-10-16T07:18:55.563Z,99.99
2022-10-16T07:19:54.937Z,99.99
2022-10-16T07:20:54.862Z,99.99
2022-10-16T07:21:54.824Z,99.99
2022-10-16T07:22:54.782Z,99.99
2022-10-16T07:23:54.738Z,99.99
2022-10-16T07:24:54.696Z,99.99
2022-10-16T07:25:54.672Z,99.99
2022-10-16T07:26:54.631Z,99.99
2022-10-16T07:27:54.571Z,99.99
2022-10-16T07:28:54.623Z,99.99
2022-10-16T07:29:54.484Z,99.99
2022-10-16T07:30:54.441Z,99.99
2022-10-16T07:31:54.403Z,99.99
2022-10-16T07:32:54.378Z,99.99
2022-10-16T07:33:54.319Z,99.99
2022-10-16T07:34:54.274Z,99.99
2022-10-16T07:35:54.230Z,99.99
2022-10-16T07:37:04.468Z,99.99
2022-10-16T07:37:54.206Z,99.99
2022-10-16T07:38:57.163Z,99.99
2022-10-16T07:39:54.215Z,99.99
2022-10-16T07:40:54.160Z,99.99
2022-10-16T07:41:53.991Z,99.99
2022-10-16T07:42:53.957Z,99.99
2022-10-16T07:43:54.572Z,99.99
2022-10-16T07:44:54.126Z,99.99
2022-10-16T07:45:53.830Z,99.99
2022-10-16T07:46:54.088Z,99.99
2022-10-16T07:47:53.964Z,99.99
2022-10-16T07:48:53.681Z,99.99
2022-10-16T07:49:53.705Z,99.99
2022-10-16T07:50:53.642Z,99.99
2022-10-16T07:51:53.565Z,99.99
2022-10-16T07:52:53.537Z,99.99
2022-10-16T07:53:53.617Z,99.99
2022-10-16T07:55:53.393Z,99.99
2022-10-16T07:56:53.414Z,99.99
2022-10-16T07:57:53.375Z,99.99
2022-10-16T07:58:53.476Z,99.99
2022-10-16T07:59:53.269Z,99.99
2022-10-16T08:00:53.338Z,99.99
2022-10-16T08:01:53.194Z,99.99
2022-10-16T08:02:53.096Z,99.99
2022-10-16T08:03:53.123Z,99.99
2022-10-16T08:04:53.009Z,99.99
2022-10-16T08:05:54.084Z,99.99
2022-10-16T08:06:52.959Z,99.99
2022-10-16T08:07:52.885Z,99.99
2022-10-16T08:08:52.969Z,99.99
2022-10-16T08:09:52.871Z,99.99
2022-10-16T08:10:52.811Z,99.99
2022-10-16T08:11:52.771Z,99.99
2022-10-16T08:12:53.473Z,99.99
2022-10-16T08:13:52.648Z,99.99
2022-10-16T08:14:52.587Z,99.99
2022-10-16T08:15:52.553Z,99.99
2022-10-16T08:16:52.590Z,99.99
2022-10-16T08:17:52.465Z,99.99
2022-10-16T08:18:52.582Z,99.99
2022-10-16T08:19:52.372Z,99.99
2022-10-16T08:20:52.336Z,99.99
2022-10-16T08:21:52.343Z,99.99
2022-10-16T08:22:52.250Z,99.99
2022-10-16T08:23:55.089Z,99.99
2022-10-16T08:24:52.165Z,99.99
2022-10-16T08:25:52.120Z,99.99
2022-10-16T08:26:52.081Z,99.99
2022-10-16T08:27:52.059Z,99.99
2022-10-16T08:28:52.107Z,99.99
2022-10-16T08:29:51.949Z,99.99
2022-10-16T08:30:51.914Z,99.99
2022-10-16T08:31:51.910Z,99.99
2022-10-16T08:32:51.832Z,99.99
2022-10-16T08:33:51.784Z,99.99
2022-10-16T08:34:51.745Z,99.99
2022-10-16T08:35:51.699Z,99.99
2022-10-16T08:36:51.681Z,99.99
2022-10-16T08:37:51.618Z,99.99
2022-10-16T08:38:51.598Z,99.99
2022-10-16T08:39:51.539Z,99.99
2022-10-16T08:40:53.713Z,99.99
2022-10-16T08:41:51.451Z,99.99
2022-10-16T08:42:51.459Z,99.99
2022-10-16T08:43:51.375Z,99.99
2022-10-16T08:44:51.329Z,99.99
2022-10-16T08:45:51.283Z,99.78
2022-10-16T08:46:51.239Z,99.58
2022-10-16T08:47:51.208Z,99.40
2022-10-16T08:48:51.188Z,99.58
2022-10-16T08:49:51.119Z,99.99
2022-10-16T08:50:51.076Z,99.99
2022-10-16T08:51:51.034Z,99.99
2022-10-16T08:52:50.994Z,99.99
2022-10-16T08:53:50.959Z,99.25
2022-10-16T08:54:50.936Z,99.25
2022-10-16T08:55:50.875Z,98.68
2022-10-16T08:56:50.851Z,98.10
2022-10-16T08:57:50.783Z,98.44
2022-10-16T08:58:52.801Z,97.33
2022-10-16T08:59:50.696Z,96.70
2022-10-16T09:00:50.734Z,95.36
2022-10-16T09:01:50.625Z,92.17
2022-10-16T09:02:50.578Z,87.92
2022-10-16T09:03:50.536Z,83.95
2022-10-16T09:04:55.571Z,79.20
2022-10-16T09:05:50.458Z,76.08
2022-10-16T09:06:50.446Z,70.63
2022-10-16T09:07:50.496Z,67.50
2022-10-16T09:08:50.372Z,65.24
2022-10-16T09:09:50.305Z,62.74
2022-10-16T09:10:50.270Z,60.38
2022-10-16T09:11:50.229Z,58.95
2022-10-16T09:12:50.222Z,58.13
2022-10-16T09:13:50.157Z,56.18
2022-10-16T09:14:50.161Z,54.82
2022-10-16T09:15:50.086Z,54.85
2022-10-16T09:16:50.050Z,54.52
2022-10-16T09:17:50.016Z,55.21
2022-10-16T09:18:49.977Z,54.62
2022-10-16T09:19:49.953Z,54.72
2022-10-16T09:20:49.938Z,53.38
2022-10-16T09:21:49.872Z,52.80
2022-10-16T09:22:49.836Z,52.04
2022-10-16T09:23:49.797Z,51.48
2022-10-16T09:24:49.777Z,52.29
2022-10-16T09:25:49.758Z,50.88
2022-10-16T09:26:49.760Z,48.75
2022-10-16T09:27:49.662Z,47.70
2022-10-16T09:28:49.683Z,47.04
2022-10-16T09:29:49.600Z,46.97
2022-10-16T09:30:49.572Z,45.42
2022-10-16T09:31:49.537Z,45.05
2022-10-16T09:32:49.542Z,44.29
2022-10-16T09:33:49.466Z,43.52
2022-10-16T09:34:49.453Z,43.02
2022-10-16T09:35:49.410Z,43.21
2022-10-16T09:36:49.380Z,43.41
2022-10-16T09:37:49.339Z,43.41
2022-10-16T09:38:49.334Z,42.65
2022-10-16T09:39:49.277Z,42.66
2022-10-16T09:40:52.114Z,42.49
2022-10-16T09:41:49.210Z,40.35
2022-10-16T09:42:49.187Z,39.29
2022-10-16T09:43:49.151Z,39.60
2022-10-16T09:44:49.156Z,39.32
2022-10-16T09:45:49.082Z,38.95
2022-10-16T09:46:49.086Z,39.05
2022-10-16T09:47:50.854Z,38.58
2022-10-16T09:48:48.998Z,38.68
2022-10-16T09:49:48.966Z,38.01
2022-10-16T09:50:48.933Z,38.32
2022-10-16T09:51:48.905Z,37.83
2022-10-16T09:52:49.008Z,37.83
2022-10-16T09:53:48.896Z,36.84
2022-10-16T09:54:48.813Z,37.14
2022-10-16T09:55:48.785Z,36.94
2022-10-16T09:56:48.753Z,36.36
2022-10-16T09:57:48.727Z,35.79
2022-10-16T09:58:48.732Z,34.31
2022-10-16T09:59:48.671Z,34.53
2022-10-16T10:00:48.642Z,34.05
2022-10-16T10:01:48.629Z,33.85
2022-10-16T10:02:48.597Z,34.15
2022-10-16T10:03:48.546Z,33.46
2022-10-16T10:04:48.523Z,33.47
2022-10-16T10:05:48.490Z,32.47
2022-10-16T10:06:48.462Z,32.97
2022-10-16T10:07:48.492Z,32.57
2022-10-16T10:08:48.403Z,32.59
2022-10-16T10:09:48.415Z,32.68
2022-10-16T10:10:48.356Z,32.57
2022-10-16T10:11:48.339Z,32.37
2022-10-16T10:12:48.291Z,32.78
2022-10-16T10:13:49.001Z,31.70
2022-10-16T10:14:48.233Z,31.40
2022-10-16T10:15:48.200Z,31.20
2022-10-16T10:16:48.175Z,30.51
2022-10-16T10:17:48.148Z,30.51
2022-10-16T10:18:48.116Z,30.52
2022-10-16T10:19:48.176Z,31.81
2022-10-16T10:20:48.063Z,31.04
2022-10-16T10:21:48.032Z,31.15
2022-10-16T10:22:48.003Z,31.54
2022-10-16T10:23:47.982Z,31.15
2022-10-16T10:24:47.958Z,30.85
2022-10-16T10:25:47.952Z,31.07
2022-10-16T10:26:48.709Z,30.97
2022-10-16T10:27:47.861Z,31.38
2022-10-16T10:28:47.892Z,31.08
2022-10-16T10:29:47.845Z,30.88
2022-10-16T10:30:47.780Z,29.90
2022-10-16T10:31:47.755Z,30.09
2022-10-16T10:32:47.729Z,30.00
2022-10-16T10:33:47.695Z,30.00
2022-10-16T10:34:48.484Z,29.91
2022-10-16T10:35:47.650Z,29.82
2022-10-16T10:36:47.614Z,29.52
2022-10-16T10:37:47.615Z,29.23
2022-10-16T10:38:47.618Z,29.04
2022-10-16T10:39:47.536Z,28.75
2022-10-16T10:40:47.515Z,28.45
2022-10-16T10:41:47.485Z,27.86
2022-10-16T10:42:47.454Z,28.55
2022-10-16T10:43:47.433Z,28.55
2022-10-16T10:44:48.017Z,28.25
2022-10-16T10:45:47.375Z,28.25
2022-10-16T10:46:47.412Z,28.05
2022-10-16T10:47:47.325Z,28.75
2022-10-16T10:48:47.290Z,27.64
2022-10-16T10:49:49.002Z,27.74
2022-10-16T10:50:47.245Z,28.72
2022-10-16T10:51:47.300Z,28.51
2022-10-16T10:52:47.181Z,28.70
2022-10-16T10:53:47.156Z,28.72
2022-10-16T10:54:47.128Z,28.72
2022-10-16T10:55:47.106Z,28.63
2022-10-16T10:56:47.105Z,28.45
2022-10-16T10:57:47.081Z,28.27
2022-10-16T10:58:47.048Z,28.18
2022-10-16T10:59:46.996Z,27.80
2022-10-16T11:00:46.972Z,27.30
2022-10-16T11:01:46.997Z,27.21
2022-10-16T11:02:46.970Z,26.62
2022-10-16T11:03:46.888Z,26.72
2022-10-16T11:04:46.872Z,25.71
2022-10-16T11:05:46.839Z,25.51
2022-10-16T11:06:46.932Z,25.00
2022-10-16T11:07:48.579Z,25.55
2022-10-16T11:08:48.539Z,25.33
2022-10-16T11:09:47.646Z,25.81
2022-10-16T11:10:46.718Z,26.36
2022-10-16T11:11:46.738Z,27.13
2022-10-16T11:12:46.687Z,28.38
2022-10-16T11:13:46.627Z,28.66
2022-10-16T11:14:46.594Z,28.96
2022-10-16T11:15:46.649Z,29.05
2022-10-16T11:16:46.550Z,28.55
2022-10-16T11:17:46.508Z,29.24
2022-10-16T11:18:46.511Z,28.95
2022-10-16T11:19:46.462Z,29.02
2022-10-16T11:20:46.429Z,28.82
2022-10-16T11:21:46.401Z,29.41
2022-10-16T11:22:46.378Z,29.80
2022-10-16T11:23:46.343Z,30.30
2022-10-16T11:24:46.353Z,30.18
2022-10-16T11:25:46.300Z,29.79
2022-10-16T11:26:46.255Z,30.66
2022-10-16T11:27:46.229Z,31.63
2022-10-16T11:28:46.269Z,31.50
2022-10-16T11:29:46.170Z,32.46
2022-10-16T11:30:46.171Z,33.04
2022-10-16T11:31:46.112Z,33.33
2022-10-16T11:32:46.086Z,33.54
2022-10-16T11:33:46.084Z,33.15
2022-10-16T11:34:47.119Z,33.17
2022-10-16T11:35:46.049Z,33.36
2022-10-16T11:36:45.971Z,33.77
2022-10-16T11:37:45.930Z,32.31
2022-10-16T11:38:45.921Z,32.62
2022-10-16T11:39:45.878Z,32.54
2022-10-16T11:40:45.860Z,32.17
2022-10-16T11:41:45.866Z,32.46
2022-10-16T11:42:45.797Z,31.84
2022-10-16T11:43:45.749Z,31.64
2022-10-16T11:44:45.728Z,31.94
2022-10-16T11:45:45.739Z,31.73
2022-10-16T11:46:58.980Z,31.92
2022-10-16T11:48:00.999Z,32.20
2022-10-16T11:48:45.605Z,32.50
2022-10-16T11:49:45.581Z,32.81
2022-10-16T11:50:45.544Z,32.90
2022-10-16T11:51:45.574Z,32.21
2022-10-16T11:52:45.487Z,32.21
2022-10-16T11:53:45.463Z,32.04
2022-10-16T11:54:45.431Z,32.05
2022-10-16T11:55:46.955Z,31.95
2022-10-16T11:56:45.369Z,31.76
2022-10-16T11:57:45.347Z,32.17
2022-10-16T11:58:45.327Z,31.69
2022-10-16T11:59:45.313Z,30.80
2022-10-16T12:00:45.258Z,31.10
2022-10-16T12:01:45.241Z,30.91
2022-10-16T12:02:45.198Z,30.34
2022-10-16T12:03:46.942Z,29.65
2022-10-16T12:04:45.136Z,29.76
2022-10-16T12:05:45.113Z,29.68
2022-10-16T12:06:45.123Z,29.17
2022-10-16T12:07:45.047Z,28.86
2022-10-16T12:08:45.025Z,29.05
2022-10-16T12:09:45.004Z,29.80
2022-10-16T12:10:44.973Z,30.79
2022-10-16T12:11:44.928Z,30.40
2022-10-16T12:12:44.943Z,30.49
2022-10-16T12:13:44.873Z,29.71
2022-10-16T12:15:14.624Z,30.00
2022-10-16T12:15:58.666Z,29.90
2022-10-16T12:16:44.796Z,30.79
2022-10-16T12:17:44.776Z,31.09
2022-10-16T12:18:44.735Z,30.69
2022-10-16T12:19:44.730Z,31.18
2022-10-16T12:20:44.668Z,29.92
2022-10-16T12:21:44.643Z,29.51
2022-10-16T12:22:44.619Z,29.52
2022-10-16T12:23:44.605Z,29.83
2022-10-16T12:24:44.568Z,29.24
2022-10-16T12:25:44.520Z,27.58
2022-10-16T12:26:44.498Z,28.56
2022-10-16T12:27:44.479Z,28.56
2022-10-16T12:28:44.628Z,29.16
2022-10-16T12:29:44.429Z,29.06
2022-10-16T12:30:44.383Z,29.25
2022-10-16T12:31:49.766Z,28.86
2022-10-16T12:32:47.891Z,28.86
2022-10-16T12:33:44.295Z,28.75
2022-10-16T12:34:44.306Z,28.95
2022-10-16T12:35:44.239Z,29.13
2022-10-16T12:36:44.208Z,29.62
2022-10-16T12:37:44.182Z,29.74
2022-10-16T12:38:44.149Z,29.83
2022-10-16T12:39:44.128Z,30.03
2022-10-16T12:40:44.148Z,29.16
2022-10-16T12:41:44.061Z,29.75
2022-10-16T12:42:44.061Z,29.27
2022-10-16T12:43:44.000Z,29.46
2022-10-16T12:44:43.972Z,29.47
2022-10-16T12:45:43.947Z,29.28
2022-10-16T12:46:43.970Z,28.09
2022-10-16T12:47:43.881Z,27.89
2022-10-16T12:48:49.066Z,28.28
2022-10-16T12:49:43.892Z,27.50
2022-10-16T12:50:43.818Z,27.81
2022-10-16T12:51:43.781Z,26.82
2022-10-16T12:52:43.764Z,26.82
2022-10-16T12:53:43.712Z,26.23
2022-10-16T12:54:43.683Z,26.92
2022-10-16T12:55:43.669Z,26.72
2022-10-16T12:56:43.628Z,26.82
2022-10-16T12:57:44.532Z,27.01
2022-10-16T12:58:43.601Z,26.90